sensor_id;sensor_type;location;lat;lon;timestamp;temperature;humidity
66506;HTU21D;53332;51.082;5.832;2022-11-03T00:01:42;12.80;118.99
66506;HTU21D;53332;51.082;5.832;2022-11-03T00:04:10;12.79;118.99
66506;HTU21D;53332;51.082;5.832;2022-11-03T00:06:36;12.79;118.99
66506;HTU21D;53332;51.082;5.832;2022-11-03T00:09:05;12.79;118.99
66506;HTU21D;53332;51.082;5.832;2022-11-03T00:11:33;12.76;118.99
66506;HTU21D;53332;51.082;5.832;2022-11-03T00:13:59;12.76;118.99
66506;HTU21D;53332;51.082;5.832;2022-11-03T00:16:24;12.75;118.99
66506;HTU21D;53332;51.082;5.832;2022-11-03T00:18:51;12.75;118.99
66506;HTU21D;53332;51.082;5.832;2022-11-03T00:21:17;12.74;118.99
66506;HTU21D;53332;51.082;5.832;2022-11-03T00:23:44;12.73;118.99
66506;HTU21D;53332;51.082;5.832;2022-11-03T00:26:19;12.74;118.99
66506;HTU21D;53332;51.082;5.832;2022-11-03T00:28:53;12.76;118.99
66506;HTU21D;53332;51.082;5.832;2022-11-03T00:31:25;12.75;118.99
66506;HTU21D;53332;51.082;5.832;2022-11-03T00:33:52;12.75;118.99
66506;HTU21D;53332;51.082;5.832;2022-11-03T00:36:20;12.75;118.99
66506;HTU21D;53332;51.082;5.832;2022-11-03T00:38:47;12.75;118.99
66506;HTU21D;53332;51.082;5.832;2022-11-03T00:41:13;12.74;118.99
66506;HTU21D;53332;51.082;5.832;2022-11-03T00:43:39;12.75;118.99
66506;HTU21D;53332;51.082;5.832;2022-11-03T00:46:07;12.75;118.99
66506;HTU21D;53332;51.082;5.832;2022-11-03T00:48:34;12.74;118.99
66506;HTU21D;53332;51.082;5.832;2022-11-03T00:51:10;12.75;118.99
66506;HTU21D;53332;51.082;5.832;2022-11-03T00:53:54;12.74;118.99
66506;HTU21D;53332;51.082;5.832;2022-11-03T00:56:26;12.76;118.99
66506;HTU21D;53332;51.082;5.832;2022-11-03T00:58:53;12.78;118.99
66506;HTU21D;53332;51.082;5.832;2022-11-03T01:01:21;12.80;118.99
66506;HTU21D;53332;51.082;5.832;2022-11-03T01:03:49;12.80;118.99
66506;HTU21D;53332;51.082;5.832;2022-11-03T01:06:37;12.79;118.99
66506;HTU21D;53332;51.082;5.832;2022-11-03T01:09:26;12.80;118.99
66506;HTU21D;53332;51.082;5.832;2022-11-03T01:14:20;12.82;118.99
66506;HTU21D;53332;51.082;5.832;2022-11-03T01:16:46;12.84;118.99
66506;HTU21D;53332;51.082;5.832;2022-11-03T01:19:12;12.85;118.99
66506;HTU21D;53332;51.082;5.832;2022-11-03T01:21:37;12.85;118.99
66506;HTU21D;53332;51.082;5.832;2022-11-03T01:24:03;12.85;118.99
66506;HTU21D;53332;51.082;5.832;2022-11-03T01:26:30;12.84;118.99
66506;HTU21D;53332;51.082;5.832;2022-11-03T01:28:58;12.82;118.99
66506;HTU21D;53332;51.082;5.832;2022-11-03T01:31:25;12.85;118.99
66506;HTU21D;53332;51.082;5.832;2022-11-03T01:33:54;12.82;118.99
66506;HTU21D;53332;51.082;5.832;2022-11-03T01:36:20;12.80;118.99
66506;HTU21D;53332;51.082;5.832;2022-11-03T01:38:46;12.78;118.99
66506;HTU21D;53332;51.082;5.832;2022-11-03T01:41:21;12.77;118.99
66506;HTU21D;53332;51.082;5.832;2022-11-03T01:49:11;12.77;118.99
66506;HTU21D;53332;51.082;5.832;2022-11-03T01:51:42;12.77;118.99
66506;HTU21D;53332;51.082;5.832;2022-11-03T01:54:11;12.75;118.99
66506;HTU21D;53332;51.082;5.832;2022-11-03T01:56:42;12.75;118.99
66506;HTU21D;53332;51.082;5.832;2022-11-03T01:59:15;12.74;118.99
66506;HTU21D;53332;51.082;5.832;2022-11-03T02:01:43;12.75;118.99
66506;HTU21D;53332;51.082;5.832;2022-11-03T02:04:18;12.75;118.99
66506;HTU21D;53332;51.082;5.832;2022-11-03T02:06:49;12.74;118.99
66506;HTU21D;53332;51.082;5.832;2022-11-03T02:09:19;12.75;118.99
66506;HTU21D;53332;51.082;5.832;2022-11-03T02:11:45;12.75;118.99
66506;HTU21D;53332;51.082;5.832;2022-11-03T02:14:29;12.76;118.99
66506;HTU21D;53332;51.082;5.832;2022-11-03T02:17:00;12.78;118.99
66506;HTU21D;53332;51.082;5.832;2022-11-03T02:20:02;12.78;118.99
66506;HTU21D;53332;51.082;5.832;2022-11-03T02:27:29;12.82;118.99
66506;HTU21D;53332;51.082;5.832;2022-11-03T02:29:55;12.82;118.99
66506;HTU21D;53332;51.082;5.832;2022-11-03T02:32:29;12.82;118.99
66506;HTU21D;53332;51.082;5.832;2022-11-03T02:37:32;12.86;118.99
66506;HTU21D;53332;51.082;5.832;2022-11-03T02:40:06;12.84;118.99
66506;HTU21D;53332;51.082;5.832;2022-11-03T02:42:34;12.85;118.99
66506;HTU21D;53332;51.082;5.832;2022-11-03T02:45:05;12.84;118.99
66506;HTU21D;53332;51.082;5.832;2022-11-03T02:47:34;12.82;118.99
66506;HTU21D;53332;51.082;5.832;2022-11-03T02:50:05;12.81;118.99
66506;HTU21D;53332;51.082;5.832;2022-11-03T02:52:42;12.80;118.99
66506;HTU21D;53332;51.082;5.832;2022-11-03T02:55:34;12.79;118.99
66506;HTU21D;53332;51.082;5.832;2022-11-03T02:58:23;12.77;118.99
66506;HTU21D;53332;51.082;5.832;2022-11-03T03:00:54;12.76;118.99
66506;HTU21D;53332;51.082;5.832;2022-11-03T03:03:31;12.78;118.99
66506;HTU21D;53332;51.082;5.832;2022-11-03T03:06:04;12.77;118.99
66506;HTU21D;53332;51.082;5.832;2022-11-03T03:08:34;12.76;118.99
66506;HTU21D;53332;51.082;5.832;2022-11-03T03:11:04;12.76;118.99
66506;HTU21D;53332;51.082;5.832;2022-11-03T03:13:31;12.74;118.99
66506;HTU21D;53332;51.082;5.832;2022-11-03T03:21:15;12.77;118.99
66506;HTU21D;53332;51.082;5.832;2022-11-03T03:23:50;12.81;118.99
66506;HTU21D;53332;51.082;5.832;2022-11-03T03:26:34;12.81;118.99
66506;HTU21D;53332;51.082;5.832;2022-11-03T03:29:19;12.85;118.99
66506;HTU21D;53332;51.082;5.832;2022-11-03T03:31:53;12.89;118.99
66506;HTU21D;53332;51.082;5.832;2022-11-03T03:34:23;12.93;118.99
66506;HTU21D;53332;51.082;5.832;2022-11-03T03:36:50;12.94;118.99
66506;HTU21D;53332;51.082;5.832;2022-11-03T03:39:18;12.94;118.99
66506;HTU21D;53332;51.082;5.832;2022-11-03T03:41:47;12.94;118.99
66506;HTU21D;53332;51.082;5.832;2022-11-03T03:44:14;12.95;118.99
66506;HTU21D;53332;51.082;5.832;2022-11-03T03:46:46;12.94;118.99
66506;HTU21D;53332;51.082;5.832;2022-11-03T03:49:13;12.96;118.99
66506;HTU21D;53332;51.082;5.832;2022-11-03T03:51:40;12.97;118.99
66506;HTU21D;53332;51.082;5.832;2022-11-03T03:54:07;13.00;118.99
66506;HTU21D;53332;51.082;5.832;2022-11-03T03:56:43;13.03;118.99
66506;HTU21D;53332;51.082;5.832;2022-11-03T03:59:10;13.01;118.99
66506;HTU21D;53332;51.082;5.832;2022-11-03T04:01:36;13.03;118.99
66506;HTU21D;53332;51.082;5.832;2022-11-03T04:04:01;13.03;118.99
66506;HTU21D;53332;51.082;5.832;2022-11-03T04:06:27;13.03;118.99
66506;HTU21D;53332;51.082;5.832;2022-11-03T04:08:52;13.04;118.99
66506;HTU21D;53332;51.082;5.832;2022-11-03T04:11:18;13.04;118.99
66506;HTU21D;53332;51.082;5.832;2022-11-03T04:14:02;13.04;118.99
66506;HTU21D;53332;51.082;5.832;2022-11-03T04:16:46;13.05;118.99
66506;HTU21D;53332;51.082;5.832;2022-11-03T04:19:30;13.03;118.99
66506;HTU21D;53332;51.082;5.832;2022-11-03T04:22:16;13.01;118.99
66506;HTU21D;53332;51.082;5.832;2022-11-03T04:24:46;12.99;118.99
66506;HTU21D;53332;51.082;5.832;2022-11-03T04:29:44;12.89;118.99
66506;HTU21D;53332;51.082;5.832;2022-11-03T04:32:15;12.84;118.99
66506;HTU21D;53332;51.082;5.832;2022-11-03T04:34:41;12.79;118.99
66506;HTU21D;53332;51.082;5.832;2022-11-03T04:37:14;12.76;118.99
66506;HTU21D;53332;51.082;5.832;2022-11-03T04:39:40;12.75;118.99
66506;HTU21D;53332;51.082;5.832;2022-11-03T04:42:18;12.73;118.99
66506;HTU21D;53332;51.082;5.832;2022-11-03T04:44:46;12.73;118.99
66506;HTU21D;53332;51.082;5.832;2022-11-03T04:47:14;12.72;118.99
66506;HTU21D;53332;51.082;5.832;2022-11-03T04:49:41;12.69;118.99
66506;HTU21D;53332;51.082;5.832;2022-11-03T04:52:16;12.67;118.99
66506;HTU21D;53332;51.082;5.832;2022-11-03T04:54:42;12.66;118.99
66506;HTU21D;53332;51.082;5.832;2022-11-03T04:57:12;12.65;118.99
66506;HTU21D;53332;51.082;5.832;2022-11-03T04:59:40;12.65;118.99
66506;HTU21D;53332;51.082;5.832;2022-11-03T05:02:15;12.66;118.99
66506;HTU21D;53332;51.082;5.832;2022-11-03T05:04:41;12.66;118.99
66506;HTU21D;53332;51.082;5.832;2022-11-03T05:07:33;12.66;118.99
66506;HTU21D;53332;51.082;5.832;2022-11-03T05:10:01;12.67;118.99
66506;HTU21D;53332;51.082;5.832;2022-11-03T05:12:28;12.65;118.99
66506;HTU21D;53332;51.082;5.832;2022-11-03T05:14:54;12.64;118.99
66506;HTU21D;53332;51.082;5.832;2022-11-03T05:17:24;12.65;118.99
66506;HTU21D;53332;51.082;5.832;2022-11-03T05:20:00;12.65;118.99
66506;HTU21D;53332;51.082;5.832;2022-11-03T05:22:32;12.66;118.99
66506;HTU21D;53332;51.082;5.832;2022-11-03T05:25:02;12.69;118.99
66506;HTU21D;53332;51.082;5.832;2022-11-03T05:27:31;12.70;118.99
66506;HTU21D;53332;51.082;5.832;2022-11-03T05:29:58;12.72;118.99
66506;HTU21D;53332;51.082;5.832;2022-11-03T05:32:27;12.73;118.99
66506;HTU21D;53332;51.082;5.832;2022-11-03T05:34:55;12.74;118.99
66506;HTU21D;53332;51.082;5.832;2022-11-03T05:37:32;12.74;118.99
66506;HTU21D;53332;51.082;5.832;2022-11-03T05:40:03;12.77;118.99
66506;HTU21D;53332;51.082;5.832;2022-11-03T05:42:40;12.78;118.99
66506;HTU21D;53332;51.082;5.832;2022-11-03T05:45:22;12.80;118.99
66506;HTU21D;53332;51.082;5.832;2022-11-03T05:47:53;12.82;118.99
66506;HTU21D;53332;51.082;5.832;2022-11-03T05:50:25;12.87;118.99
66506;HTU21D;53332;51.082;5.832;2022-11-03T05:53:02;12.90;118.99
66506;HTU21D;53332;51.082;5.832;2022-11-03T05:55:32;12.94;118.99
66506;HTU21D;53332;51.082;5.832;2022-11-03T05:58:05;12.97;118.99
66506;HTU21D;53332;51.082;5.832;2022-11-03T06:00:39;13.00;118.99
66506;HTU21D;53332;51.082;5.832;2022-11-03T06:03:06;13.01;118.99
66506;HTU21D;53332;51.082;5.832;2022-11-03T06:05:32;13.03;118.99
66506;HTU21D;53332;51.082;5.832;2022-11-03T06:08:18;13.05;118.99
66506;HTU21D;53332;51.082;5.832;2022-11-03T06:10:49;13.04;118.99
66506;HTU21D;53332;51.082;5.832;2022-11-03T06:13:21;13.07;118.99
66506;HTU21D;53332;51.082;5.832;2022-11-03T06:15:55;13.08;118.99
66506;HTU21D;53332;51.082;5.832;2022-11-03T06:18:27;13.09;118.99
66506;HTU21D;53332;51.082;5.832;2022-11-03T06:20:58;13.11;118.99
66506;HTU21D;53332;51.082;5.832;2022-11-03T06:23:25;13.14;118.99
66506;HTU21D;53332;51.082;5.832;2022-11-03T06:25:55;13.14;118.99
66506;HTU21D;53332;51.082;5.832;2022-11-03T06:28:32;13.16;118.99
66506;HTU21D;53332;51.082;5.832;2022-11-03T06:30:59;13.18;118.99
66506;HTU21D;53332;51.082;5.832;2022-11-03T06:33:27;13.19;118.99
66506;HTU21D;53332;51.082;5.832;2022-11-03T06:36:00;13.22;118.99
66506;HTU21D;53332;51.082;5.832;2022-11-03T06:38:29;13.23;118.99
66506;HTU21D;53332;51.082;5.832;2022-11-03T06:40:56;13.25;118.99
66506;HTU21D;53332;51.082;5.832;2022-11-03T06:43:36;13.26;118.99
66506;HTU21D;53332;51.082;5.832;2022-11-03T06:46:28;13.29;118.99
66506;HTU21D;53332;51.082;5.832;2022-11-03T06:48:58;13.30;118.99
66506;HTU21D;53332;51.082;5.832;2022-11-03T06:51:28;13.32;118.99
66506;HTU21D;53332;51.082;5.832;2022-11-03T06:53:59;13.31;118.99
66506;HTU21D;53332;51.082;5.832;2022-11-03T06:56:29;13.32;118.99
66506;HTU21D;53332;51.082;5.832;2022-11-03T06:58:56;13.34;118.99
66506;HTU21D;53332;51.082;5.832;2022-11-03T07:01:34;13.38;118.99
66506;HTU21D;53332;51.082;5.832;2022-11-03T07:04:17;13.39;118.99
66506;HTU21D;53332;51.082;5.832;2022-11-03T07:06:47;13.43;118.99
66506;HTU21D;53332;51.082;5.832;2022-11-03T07:09:23;13.44;118.99
66506;HTU21D;53332;51.082;5.832;2022-11-03T07:11:56;13.47;118.99
66506;HTU21D;53332;51.082;5.832;2022-11-03T07:14:31;13.48;118.99
66506;HTU21D;53332;51.082;5.832;2022-11-03T07:17:15;13.48;118.99
66506;HTU21D;53332;51.082;5.832;2022-11-03T07:19:46;13.52;118.99
66506;HTU21D;53332;51.082;5.832;2022-11-03T07:22:23;13.54;118.99
66506;HTU21D;53332;51.082;5.832;2022-11-03T07:24:56;13.58;118.99
66506;HTU21D;53332;51.082;5.832;2022-11-03T07:27:37;13.62;118.99
66506;HTU21D;53332;51.082;5.832;2022-11-03T07:32:34;13.66;118.99
66506;HTU21D;53332;51.082;5.832;2022-11-03T07:37:37;13.75;118.99
66506;HTU21D;53332;51.082;5.832;2022-11-03T07:40:04;13.78;118.99
66506;HTU21D;53332;51.082;5.832;2022-11-03T07:42:31;13.80;118.99
66506;HTU21D;53332;51.082;5.832;2022-11-03T07:44:56;13.83;118.99
66506;HTU21D;53332;51.082;5.832;2022-11-03T07:47:24;13.86;118.99
66506;HTU21D;53332;51.082;5.832;2022-11-03T07:49:50;13.90;118.99
66506;HTU21D;53332;51.082;5.832;2022-11-03T07:52:19;13.93;118.99
66506;HTU21D;53332;51.082;5.832;2022-11-03T07:54:45;13.96;118.99
66506;HTU21D;53332;51.082;5.832;2022-11-03T07:57:15;14.03;118.99
66506;HTU21D;53332;51.082;5.832;2022-11-03T07:59:47;14.06;118.99
66506;HTU21D;53332;51.082;5.832;2022-11-03T08:02:38;14.11;118.99
66506;HTU21D;53332;51.082;5.832;2022-11-03T08:05:06;14.14;118.99
66506;HTU21D;53332;51.082;5.832;2022-11-03T08:07:33;14.19;118.99
66506;HTU21D;53332;51.082;5.832;2022-11-03T08:09:59;14.22;118.99
66506;HTU21D;53332;51.082;5.832;2022-11-03T08:12:24;14.26;118.99
66506;HTU21D;53332;51.082;5.832;2022-11-03T08:14:51;14.27;118.99
66506;HTU21D;53332;51.082;5.832;2022-11-03T08:17:17;14.28;118.99
66506;HTU21D;53332;51.082;5.832;2022-11-03T08:19:43;14.30;118.99
66506;HTU21D;53332;51.082;5.832;2022-11-03T08:22:08;14.34;118.99
66506;HTU21D;53332;51.082;5.832;2022-11-03T08:24:34;14.38;118.99
66506;HTU21D;53332;51.082;5.832;2022-11-03T08:26:59;14.42;118.99
66506;HTU21D;53332;51.082;5.832;2022-11-03T08:29:25;14.42;118.99
66506;HTU21D;53332;51.082;5.832;2022-11-03T08:31:54;14.48;118.99
66506;HTU21D;53332;51.082;5.832;2022-11-03T08:34:23;14.54;118.99
66506;HTU21D;53332;51.082;5.832;2022-11-03T08:36:48;14.62;118.99
66506;HTU21D;53332;51.082;5.832;2022-11-03T08:39:14;14.70;118.99
66506;HTU21D;53332;51.082;5.832;2022-11-03T08:41:39;14.80;118.99
66506;HTU21D;53332;51.082;5.832;2022-11-03T08:44:06;14.87;118.99
66506;HTU21D;53332;51.082;5.832;2022-11-03T08:46:32;14.91;118.99
66506;HTU21D;53332;51.082;5.832;2022-11-03T08:48:58;14.96;118.99
66506;HTU21D;53332;51.082;5.832;2022-11-03T08:51:25;15.01;118.99
66506;HTU21D;53332;51.082;5.832;2022-11-03T08:53:50;15.08;118.99
66506;HTU21D;53332;51.082;5.832;2022-11-03T08:56:19;15.16;118.99
66506;HTU21D;53332;51.082;5.832;2022-11-03T08:58:46;15.22;118.99
66506;HTU21D;53332;51.082;5.832;2022-11-03T09:01:12;15.26;118.99
66506;HTU21D;53332;51.082;5.832;2022-11-03T09:03:39;15.34;118.99
66506;HTU21D;53332;51.082;5.832;2022-11-03T09:06:07;15.41;118.99
66506;HTU21D;53332;51.082;5.832;2022-11-03T09:08:32;15.45;118.99
66506;HTU21D;53332;51.082;5.832;2022-11-03T09:10:58;15.49;118.99
66506;HTU21D;53332;51.082;5.832;2022-11-03T09:13:24;15.54;118.99
66506;HTU21D;53332;51.082;5.832;2022-11-03T09:15:54;15.61;118.76
66506;HTU21D;53332;51.082;5.832;2022-11-03T09:18:19;15.63;118.63
66506;HTU21D;53332;51.082;5.832;2022-11-03T09:20:46;15.70;117.76
66506;HTU21D;53332;51.082;5.832;2022-11-03T09:23:11;15.72;117.21
66506;HTU21D;53332;51.082;5.832;2022-11-03T09:25:38;15.73;116.44
66506;HTU21D;53332;51.082;5.832;2022-11-03T09:28:07;15.71;116.43
66506;HTU21D;53332;51.082;5.832;2022-11-03T09:30:32;15.73;116.28
66506;HTU21D;53332;51.082;5.832;2022-11-03T09:32:58;15.73;116.47
66506;HTU21D;53332;51.082;5.832;2022-11-03T09:35:23;15.71;116.18
66506;HTU21D;53332;51.082;5.832;2022-11-03T09:37:49;15.71;116.96
66506;HTU21D;53332;51.082;5.832;2022-11-03T09:40:16;15.72;116.51
66506;HTU21D;53332;51.082;5.832;2022-11-03T09:42:43;15.73;116.16
66506;HTU21D;53332;51.082;5.832;2022-11-03T09:45:09;15.72;115.77
66506;HTU21D;53332;51.082;5.832;2022-11-03T09:47:38;15.71;116.50
66506;HTU21D;53332;51.082;5.832;2022-11-03T09:50:16;15.70;116.57
66506;HTU21D;53332;51.082;5.832;2022-11-03T09:52:47;15.71;116.31
66506;HTU21D;53332;51.082;5.832;2022-11-03T09:55:16;15.69;116.21
66506;HTU21D;53332;51.082;5.832;2022-11-03T09:57:42;15.67;115.99
66506;HTU21D;53332;51.082;5.832;2022-11-03T10:00:17;15.68;115.64
66506;HTU21D;53332;51.082;5.832;2022-11-03T10:02:43;15.68;116.47
66506;HTU21D;53332;51.082;5.832;2022-11-03T10:05:12;15.68;116.42
66506;HTU21D;53332;51.082;5.832;2022-11-03T10:07:42;15.68;116.68
66506;HTU21D;53332;51.082;5.832;2022-11-03T10:10:16;15.68;116.58
66506;HTU21D;53332;51.082;5.832;2022-11-03T10:12:42;15.69;116.36
66506;HTU21D;53332;51.082;5.832;2022-11-03T10:15:21;15.71;116.31
66506;HTU21D;53332;51.082;5.832;2022-11-03T10:17:47;15.72;116.51
66506;HTU21D;53332;51.082;5.832;2022-11-03T10:20:20;15.71;116.73
66506;HTU21D;53332;51.082;5.832;2022-11-03T10:22:50;15.72;116.44
66506;HTU21D;53332;51.082;5.832;2022-11-03T10:25:28;15.74;115.55
66506;HTU21D;53332;51.082;5.832;2022-11-03T10:28:22;15.76;115.35
66506;HTU21D;53332;51.082;5.832;2022-11-03T10:31:05;15.76;115.25
66506;HTU21D;53332;51.082;5.832;2022-11-03T10:36:03;15.86;116.17
66506;HTU21D;53332;51.082;5.832;2022-11-03T10:38:33;15.91;114.99
66506;HTU21D;53332;51.082;5.832;2022-11-03T10:46:33;16.13;112.74
66506;HTU21D;53332;51.082;5.832;2022-11-03T10:49:15;16.19;112.03
66506;HTU21D;53332;51.082;5.832;2022-11-03T10:51:46;16.20;111.75
66506;HTU21D;53332;51.082;5.832;2022-11-03T10:54:14;16.22;111.48
66506;HTU21D;53332;51.082;5.832;2022-11-03T10:56:42;16.27;111.16
66506;HTU21D;53332;51.082;5.832;2022-11-03T11:01:40;16.40;109.06
66506;HTU21D;53332;51.082;5.832;2022-11-03T11:04:05;16.42;108.81
66506;HTU21D;53332;51.082;5.832;2022-11-03T11:06:32;16.40;108.34
66506;HTU21D;53332;51.082;5.832;2022-11-03T11:09:04;16.36;108.64
66506;HTU21D;53332;51.082;5.832;2022-11-03T11:11:31;16.30;108.16
66506;HTU21D;53332;51.082;5.832;2022-11-03T11:14:19;16.22;108.19
66506;HTU21D;53332;51.082;5.832;2022-11-03T11:16:55;16.21;109.20
66506;HTU21D;53332;51.082;5.832;2022-11-03T11:19:24;16.24;109.35
66506;HTU21D;53332;51.082;5.832;2022-11-03T11:29:57;16.73;108.60
66506;HTU21D;53332;51.082;5.832;2022-11-03T11:37:55;17.09;106.27
66506;HTU21D;53332;51.082;5.832;2022-11-03T11:48:30;17.26;103.91
66506;HTU21D;53332;51.082;5.832;2022-11-03T11:50:57;17.24;103.59
66506;HTU21D;53332;51.082;5.832;2022-11-03T11:53:23;17.20;102.71
66506;HTU21D;53332;51.082;5.832;2022-11-03T11:55:57;17.23;103.37
66506;HTU21D;53332;51.082;5.832;2022-11-03T11:58:42;17.22;102.59
66506;HTU21D;53332;51.082;5.832;2022-11-03T12:01:33;17.20;103.10
66506;HTU21D;53332;51.082;5.832;2022-11-03T12:04:18;17.18;103.16
66506;HTU21D;53332;51.082;5.832;2022-11-03T12:06:46;17.18;103.41
66506;HTU21D;53332;51.082;5.832;2022-11-03T12:11:43;17.17;102.22
66506;HTU21D;53332;51.082;5.832;2022-11-03T12:16:53;17.13;102.47
66506;HTU21D;53332;51.082;5.832;2022-11-03T12:19:35;17.06;102.98
66506;HTU21D;53332;51.082;5.832;2022-11-03T12:22:03;17.06;103.29
66506;HTU21D;53332;51.082;5.832;2022-11-03T12:27:00;17.03;102.78
66506;HTU21D;53332;51.082;5.832;2022-11-03T12:29:26;17.03;103.95
66506;HTU21D;53332;51.082;5.832;2022-11-03T12:31:52;17.04;102.89
66506;HTU21D;53332;51.082;5.832;2022-11-03T12:34:18;17.06;102.28
66506;HTU21D;53332;51.082;5.832;2022-11-03T12:36:44;17.08;101.83
66506;HTU21D;53332;51.082;5.832;2022-11-03T12:39:10;17.09;101.41
66506;HTU21D;53332;51.082;5.832;2022-11-03T12:41:35;17.10;100.96
66506;HTU21D;53332;51.082;5.832;2022-11-03T12:44:02;17.08;101.05
66506;HTU21D;53332;51.082;5.832;2022-11-03T12:46:27;17.08;101.70
66506;HTU21D;53332;51.082;5.832;2022-11-03T12:48:54;17.10;101.37
66506;HTU21D;53332;51.082;5.832;2022-11-03T12:51:21;17.11;102.18
66506;HTU21D;53332;51.082;5.832;2022-11-03T12:53:47;17.16;100.78
66506;HTU21D;53332;51.082;5.832;2022-11-03T12:56:14;17.21;101.36
66506;HTU21D;53332;51.082;5.832;2022-11-03T12:58:40;17.28;101.10
66506;HTU21D;53332;51.082;5.832;2022-11-03T13:01:07;17.32;100.81
66506;HTU21D;53332;51.082;5.832;2022-11-03T13:03:33;17.33;100.06
66506;HTU21D;53332;51.082;5.832;2022-11-03T13:06:02;17.33;99.92
66506;HTU21D;53332;51.082;5.832;2022-11-03T13:08:32;17.31;99.70
66506;HTU21D;53332;51.082;5.832;2022-11-03T13:10:57;17.28;99.97
66506;HTU21D;53332;51.082;5.832;2022-11-03T13:13:23;17.26;100.45
66506;HTU21D;53332;51.082;5.832;2022-11-03T13:15:49;17.24;100.77
66506;HTU21D;53332;51.082;5.832;2022-11-03T13:18:14;17.24;101.18
66506;HTU21D;53332;51.082;5.832;2022-11-03T13:20:40;17.23;101.00
66506;HTU21D;53332;51.082;5.832;2022-11-03T13:23:07;17.24;101.24
66506;HTU21D;53332;51.082;5.832;2022-11-03T13:25:33;17.20;101.19
66506;HTU21D;53332;51.082;5.832;2022-11-03T13:27:58;17.11;101.54
66506;HTU21D;53332;51.082;5.832;2022-11-03T13:30:25;17.06;101.66
66506;HTU21D;53332;51.082;5.832;2022-11-03T13:32:52;16.98;101.35
66506;HTU21D;53332;51.082;5.832;2022-11-03T13:35:18;16.89;101.98
66506;HTU21D;53332;51.082;5.832;2022-11-03T13:37:44;16.80;102.19
66506;HTU21D;53332;51.082;5.832;2022-11-03T13:40:13;16.77;103.33
66506;HTU21D;53332;51.082;5.832;2022-11-03T13:42:40;16.72;104.57
66506;HTU21D;53332;51.082;5.832;2022-11-03T13:45:06;16.65;109.52
66506;HTU21D;53332;51.082;5.832;2022-11-03T13:47:33;16.55;112.67
66506;HTU21D;53332;51.082;5.832;2022-11-03T13:49:58;16.40;115.71
66506;HTU21D;53332;51.082;5.832;2022-11-03T13:52:26;16.31;118.15
66506;HTU21D;53332;51.082;5.832;2022-11-03T13:54:52;16.26;118.99
66506;HTU21D;53332;51.082;5.832;2022-11-03T13:57:19;16.17;118.99
66506;HTU21D;53332;51.082;5.832;2022-11-03T13:59:51;16.12;118.99
66506;HTU21D;53332;51.082;5.832;2022-11-03T14:02:16;16.10;118.99
66506;HTU21D;53332;51.082;5.832;2022-11-03T14:04:42;16.07;118.99
66506;HTU21D;53332;51.082;5.832;2022-11-03T14:07:09;16.01;118.99
66506;HTU21D;53332;51.082;5.832;2022-11-03T14:09:35;15.97;118.99
66506;HTU21D;53332;51.082;5.832;2022-11-03T14:12:00;15.93;118.99
66506;HTU21D;53332;51.082;5.832;2022-11-03T14:14:44;15.85;118.99
66506;HTU21D;53332;51.082;5.832;2022-11-03T14:17:10;15.78;118.99
66506;HTU21D;53332;51.082;5.832;2022-11-03T14:19:36;15.74;118.99
66506;HTU21D;53332;51.082;5.832;2022-11-03T14:22:03;15.65;118.99
66506;HTU21D;53332;51.082;5.832;2022-11-03T14:24:29;15.57;118.99
66506;HTU21D;53332;51.082;5.832;2022-11-03T14:26:54;15.54;118.99
66506;HTU21D;53332;51.082;5.832;2022-11-03T14:29:20;15.42;118.99
66506;HTU21D;53332;51.082;5.832;2022-11-03T14:31:45;15.36;118.99
66506;HTU21D;53332;51.082;5.832;2022-11-03T14:34:11;15.24;118.99
66506;HTU21D;53332;51.082;5.832;2022-11-03T14:36:36;15.19;118.99
66506;HTU21D;53332;51.082;5.832;2022-11-03T14:39:03;15.10;118.99
66506;HTU21D;53332;51.082;5.832;2022-11-03T14:41:28;15.07;118.99
66506;HTU21D;53332;51.082;5.832;2022-11-03T14:44:12;15.01;118.99
66506;HTU21D;53332;51.082;5.832;2022-11-03T14:46:38;15.00;118.99
66506;HTU21D;53332;51.082;5.832;2022-11-03T14:49:03;14.98;118.99
66506;HTU21D;53332;51.082;5.832;2022-11-03T14:51:29;14.97;118.99
66506;HTU21D;53332;51.082;5.832;2022-11-03T14:53:55;14.93;118.99
66506;HTU21D;53332;51.082;5.832;2022-11-03T14:56:23;14.92;118.99
66506;HTU21D;53332;51.082;5.832;2022-11-03T14:58:48;14.87;118.99
66506;HTU21D;53332;51.082;5.832;2022-11-03T15:01:15;14.88;118.99
66506;HTU21D;53332;51.082;5.832;2022-11-03T15:03:41;14.89;118.99
66506;HTU21D;53332;51.082;5.832;2022-11-03T15:06:08;14.94;118.99
66506;HTU21D;53332;51.082;5.832;2022-11-03T15:08:34;14.94;118.99
66506;HTU21D;53332;51.082;5.832;2022-11-03T15:11:00;14.93;118.99
66506;HTU21D;53332;51.082;5.832;2022-11-03T15:13:25;14.91;118.99
66506;HTU21D;53332;51.082;5.832;2022-11-03T15:15:51;14.89;118.99
66506;HTU21D;53332;51.082;5.832;2022-11-03T15:18:16;14.92;118.99
66506;HTU21D;53332;51.082;5.832;2022-11-03T15:20:42;14.91;118.99
66506;HTU21D;53332;51.082;5.832;2022-11-03T15:23:08;14.89;118.99
66506;HTU21D;53332;51.082;5.832;2022-11-03T15:25:35;14.89;118.99
66506;HTU21D;53332;51.082;5.832;2022-11-03T15:28:01;14.87;118.99
66506;HTU21D;53332;51.082;5.832;2022-11-03T15:30:26;14.84;118.99
66506;HTU21D;53332;51.082;5.832;2022-11-03T15:32:55;14.83;118.99
66506;HTU21D;53332;51.082;5.832;2022-11-03T15:35:22;14.81;118.99
66506;HTU21D;53332;51.082;5.832;2022-11-03T15:37:47;14.81;118.99
66506;HTU21D;53332;51.082;5.832;2022-11-03T15:40:14;14.78;118.99
66506;HTU21D;53332;51.082;5.832;2022-11-03T15:42:40;14.77;118.99
66506;HTU21D;53332;51.082;5.832;2022-11-03T15:45:07;14.74;118.99
66506;HTU21D;53332;51.082;5.832;2022-11-03T15:47:34;14.72;118.99
66506;HTU21D;53332;51.082;5.832;2022-11-03T15:50:00;14.72;118.99
66506;HTU21D;53332;51.082;5.832;2022-11-03T15:52:25;14.72;118.99
66506;HTU21D;53332;51.082;5.832;2022-11-03T15:54:51;14.69;118.99
66506;HTU21D;53332;51.082;5.832;2022-11-03T15:57:16;14.68;118.99
66506;HTU21D;53332;51.082;5.832;2022-11-03T15:59:42;14.65;118.99
66506;HTU21D;53332;51.082;5.832;2022-11-03T16:02:09;14.64;118.99
66506;HTU21D;53332;51.082;5.832;2022-11-03T16:04:35;14.60;118.99
66506;HTU21D;53332;51.082;5.832;2022-11-03T16:07:01;14.58;118.99
66506;HTU21D;53332;51.082;5.832;2022-11-03T16:09:26;14.54;118.99
66506;HTU21D;53332;51.082;5.832;2022-11-03T16:11:52;14.51;118.99
66506;HTU21D;53332;51.082;5.832;2022-11-03T16:14:17;14.54;118.99
66506;HTU21D;53332;51.082;5.832;2022-11-03T16:16:43;14.53;118.99
66506;HTU21D;53332;51.082;5.832;2022-11-03T16:19:09;14.50;118.99
66506;HTU21D;53332;51.082;5.832;2022-11-03T16:21:35;14.44;118.99
66506;HTU21D;53332;51.082;5.832;2022-11-03T16:24:01;14.25;118.99
66506;HTU21D;53332;51.082;5.832;2022-11-03T16:26:28;14.08;118.99